sensor_id;sensor_type;location;lat;lon;timestamp;P1;P2;P0
42950;PMS7003;28592;51.064;17.192;2022-10-16T00:00:51;13;7;4
42950;PMS7003;28592;51.064;17.192;2022-10-16T00:03:36;16;10;4
42950;PMS7003;28592;51.064;17.192;2022-10-16T00:06:22;28;9;3
42950;PMS7003;28592;51.064;17.192;2022-10-16T00:09:09;12;6;3
42950;PMS7003;28592;51.064;17.192;2022-10-16T00:11:56;18;12;6
42950;PMS7003;28592;51.064;17.192;2022-10-16T00:14:41;15;9;6
42950;PMS7003;28592;51.064;17.192;2022-10-16T00:17:29;14;8;5
42950;PMS7003;28592;51.064;17.192;2022-10-16T00:20:14;14;8;5
42950;PMS7003;28592;51.064;17.192;2022-10-16T00:23:03;14;8;6
42950;PMS7003;28592;51.064;17.192;2022-10-16T00:28:42;14;8;5
42950;PMS7003;28592;51.064;17.192;2022-10-16T00:31:27;17;11;7
42950;PMS7003;28592;51.064;17.192;2022-10-16T00:34:14;17;5;2
42950;PMS7003;28592;51.064;17.192;2022-10-16T00:36:59;13;7;4
42950;PMS7003;28592;51.064;17.192;2022-10-16T00:39:44;11;5;3
42950;PMS7003;28592;51.064;17.192;2022-10-16T00:42:30;14;9;6
42950;PMS7003;28592;51.064;17.192;2022-10-16T00:45:15;15;9;3
42950;PMS7003;28592;51.064;17.192;2022-10-16T00:48:01;13;7;3
42950;PMS7003;28592;51.064;17.192;2022-10-16T00:50:46;12;6;3
42950;PMS7003;28592;51.064;17.192;2022-10-16T00:53:32;16;10;3
42950;PMS7003;28592;51.064;17.192;2022-10-16T00:56:18;17;12;5
42950;PMS7003;28592;51.064;17.192;2022-10-16T00:59:04;14;8;5
42950;PMS7003;28592;51.064;17.192;2022-10-16T01:01:57;11;5;2
42950;PMS7003;28592;51.064;17.192;2022-10-16T01:04:47;12;7;4
42950;PMS7003;28592;51.064;17.192;2022-10-16T01:10:40;12;6;3
42950;PMS7003;28592;51.064;17.192;2022-10-16T01:13:34;18;12;4
42950;PMS7003;28592;51.064;17.192;2022-10-16T01:19:26;20;14;4
42950;PMS7003;28592;51.064;17.192;2022-10-16T01:22:19;14;8;5
42950;PMS7003;28592;51.064;17.192;2022-10-16T01:25:09;11;6;2
42950;PMS7003;28592;51.064;17.192;2022-10-16T01:28:05;15;9;6
42950;PMS7003;28592;51.064;17.192;2022-10-16T01:30:55;13;7;4
42950;PMS7003;28592;51.064;17.192;2022-10-16T01:33:46;13;7;4
42950;PMS7003;28592;51.064;17.192;2022-10-16T01:36:42;14;8;5
42950;PMS7003;28592;51.064;17.192;2022-10-16T01:39:35;12;6;3
42950;PMS7003;28592;51.064;17.192;2022-10-16T01:42:32;17;12;6
42950;PMS7003;28592;51.064;17.192;2022-10-16T01:45:23;13;7;3
42950;PMS7003;28592;51.064;17.192;2022-10-16T01:48:09;17;11;3
42950;PMS7003;28592;51.064;17.192;2022-10-16T01:51:03;16;10;7
42950;PMS7003;28592;51.064;17.192;2022-10-16T01:53:56;21;15;8
42950;PMS7003;28592;51.064;17.192;2022-10-16T01:56:43;22;16;6
42950;PMS7003;28592;51.064;17.192;2022-10-16T01:59:30;16;11;6
42950;PMS7003;28592;51.064;17.192;2022-10-16T02:02:20;27;9;4
42950;PMS7003;28592;51.064;17.192;2022-10-16T02:08:06;22;16;13
42950;PMS7003;28592;51.064;17.192;2022-10-16T02:10:51;14;9;3
42950;PMS7003;28592;51.064;17.192;2022-10-16T02:19:27;15;9;6
42950;PMS7003;28592;51.064;17.192;2022-10-16T02:22:18;17;11;5
42950;PMS7003;28592;51.064;17.192;2022-10-16T02:28:09;14;8;5
42950;PMS7003;28592;51.064;17.192;2022-10-16T02:31:03;13;7;3
42950;PMS7003;28592;51.064;17.192;2022-10-16T02:33:52;14;8;5
42950;PMS7003;28592;51.064;17.192;2022-10-16T02:36:41;11;5;3
42950;PMS7003;28592;51.064;17.192;2022-10-16T02:39:27;11;5;3
42950;PMS7003;28592;51.064;17.192;2022-10-16T02:42:14;22;5;1
42950;PMS7003;28592;51.064;17.192;2022-10-16T02:45:00;13;7;3
42950;PMS7003;28592;51.064;17.192;2022-10-16T02:47:45;23;6;2
42950;PMS7003;28592;51.064;17.192;2022-10-16T02:50:31;18;12;3
42950;PMS7003;28592;51.064;17.192;2022-10-16T02:53:16;12;6;3
42950;PMS7003;28592;51.064;17.192;2022-10-16T02:56:01;15;9;3
42950;PMS7003;28592;51.064;17.192;2022-10-16T02:58:46;29;9;3
42950;PMS7003;28592;51.064;17.192;2022-10-16T03:01:32;14;8;5
42950;PMS7003;28592;51.064;17.192;2022-10-16T03:04:17;11;5;2
42950;PMS7003;28592;51.064;17.192;2022-10-16T03:07:02;12;6;2
42950;PMS7003;28592;51.064;17.192;2022-10-16T03:09:48;14;8;4
42950;PMS7003;28592;51.064;17.192;2022-10-16T03:12:33;14;9;4
42950;PMS7003;28592;51.064;17.192;2022-10-16T03:15:18;13;8;4
42950;PMS7003;28592;51.064;17.192;2022-10-16T03:18:03;14;8;2
42950;PMS7003;28592;51.064;17.192;2022-10-16T03:20:48;23;17;7
42950;PMS7003;28592;51.064;17.192;2022-10-16T03:23:34;12;7;3
42950;PMS7003;28592;51.064;17.192;2022-10-16T03:26:19;19;13;6
42950;PMS7003;28592;51.064;17.192;2022-10-16T03:29:05;24;6;4
42950;PMS7003;28592;51.064;17.192;2022-10-16T03:31:51;12;7;2
42950;PMS7003;28592;51.064;17.192;2022-10-16T03:34:36;18;12;6
42950;PMS7003;28592;51.064;17.192;2022-10-16T03:37:21;20;14;3
42950;PMS7003;28592;51.064;17.192;2022-10-16T03:40:07;14;8;3
42950;PMS7003;28592;51.064;17.192;2022-10-16T03:42:52;14;8;5
42950;PMS7003;28592;51.064;17.192;2022-10-16T03:45:41;28;22;9
42950;PMS7003;28592;51.064;17.192;2022-10-16T03:48:26;14;8;5
42950;PMS7003;28592;51.064;17.192;2022-10-16T03:51:12;14;8;2
42950;PMS7003;28592;51.064;17.192;2022-10-16T03:53:57;13;7;3
42950;PMS7003;28592;51.064;17.192;2022-10-16T03:56:42;13;7;2
42950;PMS7003;28592;51.064;17.192;2022-10-16T03:59:27;14;9;4
42950;PMS7003;28592;51.064;17.192;2022-10-16T04:02:13;11;5;3
42950;PMS7003;28592;51.064;17.192;2022-10-16T04:05:00;20;14;7
42950;PMS7003;28592;51.064;17.192;2022-10-16T04:07:48;14;8;3
42950;PMS7003;28592;51.064;17.192;2022-10-16T04:10:34;20;14;6
42950;PMS7003;28592;51.064;17.192;2022-10-16T04:13:19;16;10;6
42950;PMS7003;28592;51.064;17.192;2022-10-16T04:16:08;13;7;4
42950;PMS7003;28592;51.064;17.192;2022-10-16T04:18:54;16;10;6
42950;PMS7003;28592;51.064;17.192;2022-10-16T04:21:39;11;5;3
42950;PMS7003;28592;51.064;17.192;2022-10-16T04:24:24;14;8;5
42950;PMS7003;28592;51.064;17.192;2022-10-16T04:27:10;11;5;3
42950;PMS7003;28592;51.064;17.192;2022-10-16T04:29:59;16;10;3
42950;PMS7003;28592;51.064;17.192;2022-10-16T04:32:47;10;5;2
42950;PMS7003;28592;51.064;17.192;2022-10-16T04:35:34;14;8;4
42950;PMS7003;28592;51.064;17.192;2022-10-16T04:38:19;13;7;4
42950;PMS7003;28592;51.064;17.192;2022-10-16T04:41:07;16;10;6
42950;PMS7003;28592;51.064;17.192;2022-10-16T04:43:53;15;9;5
42950;PMS7003;28592;51.064;17.192;2022-10-16T04:46:38;15;10;4
42950;PMS7003;28592;51.064;17.192;2022-10-16T04:49:26;15;10;5
42950;PMS7003;28592;51.064;17.192;2022-10-16T04:52:12;19;13;4
42950;PMS7003;28592;51.064;17.192;2022-10-16T04:54:57;14;8;3
42950;PMS7003;28592;51.064;17.192;2022-10-16T04:57:47;12;6;3
42950;PMS7003;28592;51.064;17.192;2022-10-16T05:00:32;17;11;5
42950;PMS7003;28592;51.064;17.192;2022-10-16T05:03:20;13;7;3
42950;PMS7003;28592;51.064;17.192;2022-10-16T05:06:06;18;12;4
42950;PMS7003;28592;51.064;17.192;2022-10-16T05:08:52;12;6;3
42950;PMS7003;28592;51.064;17.192;2022-10-16T05:11:37;14;8;4
42950;PMS7003;28592;51.064;17.192;2022-10-16T05:14:22;18;12;4
42950;PMS7003;28592;51.064;17.192;2022-10-16T05:17:08;21;4;2
42950;PMS7003;28592;51.064;17.192;2022-10-16T05:19:53;17;11;3
42950;PMS7003;28592;51.064;17.192;2022-10-16T05:22:38;18;12;4
42950;PMS7003;28592;51.064;17.192;2022-10-16T05:25:24;12;6;3
42950;PMS7003;28592;51.064;17.192;2022-10-16T05:28:09;11;6;3
42950;PMS7003;28592;51.064;17.192;2022-10-16T05:30:55;16;10;3
42950;PMS7003;28592;51.064;17.192;2022-10-16T05:33:41;17;11;4
42950;PMS7003;28592;51.064;17.192;2022-10-16T05:36:31;15;9;4
42950;PMS7003;28592;51.064;17.192;2022-10-16T05:39:17;18;13;7
42950;PMS7003;28592;51.064;17.192;2022-10-16T05:42:05;18;12;6
42950;PMS7003;28592;51.064;17.192;2022-10-16T05:44:50;19;13;9
42950;PMS7003;28592;51.064;17.192;2022-10-16T05:47:35;15;9;3
42950;PMS7003;28592;51.064;17.192;2022-10-16T05:50:21;18;12;8
42950;PMS7003;28592;51.064;17.192;2022-10-16T05:53:06;11;6;3
42950;PMS7003;28592;51.064;17.192;2022-10-16T05:55:54;18;6;4
42950;PMS7003;28592;51.064;17.192;2022-10-16T05:58:40;12;6;3
42950;PMS7003;28592;51.064;17.192;2022-10-16T06:01:26;12;7;4
42950;PMS7003;28592;51.064;17.192;2022-10-16T06:04:11;14;9;5
42950;PMS7003;28592;51.064;17.192;2022-10-16T06:06:59;11;6;2
42950;PMS7003;28592;51.064;17.192;2022-10-16T06:09:50;13;7;2
42950;PMS7003;28592;51.064;17.192;2022-10-16T06:12:36;21;15;4
42950;PMS7003;28592;51.064;17.192;2022-10-16T06:15:21;14;8;4
42950;PMS7003;28592;51.064;17.192;2022-10-16T06:18:07;16;11;8
42950;PMS7003;28592;51.064;17.192;2022-10-16T06:20:53;13;7;4
42950;PMS7003;28592;51.064;17.192;2022-10-16T06:23:39;18;13;5
42950;PMS7003;28592;51.064;17.192;2022-10-16T06:26:25;18;12;6
42950;PMS7003;28592;51.064;17.192;2022-10-16T06:29:12;16;10;2
42950;PMS7003;28592;51.064;17.192;2022-10-16T06:31:58;18;12;4
42950;PMS7003;28592;51.064;17.192;2022-10-16T06:34:43;34;13;5
42950;PMS7003;28592;51.064;17.192;2022-10-16T06:37:28;16;10;5
42950;PMS7003;28592;51.064;17.192;2022-10-16T06:40:14;16;10;4
42950;PMS7003;28592;51.064;17.192;2022-10-16T06:42:59;32;16;5
42950;PMS7003;28592;51.064;17.192;2022-10-16T06:45:50;21;15;5
42950;PMS7003;28592;51.064;17.192;2022-10-16T06:48:41;13;7;3
42950;PMS7003;28592;51.064;17.192;2022-10-16T06:51:27;15;9;5
42950;PMS7003;28592;51.064;17.192;2022-10-16T06:54:14;23;6;3
42950;PMS7003;28592;51.064;17.192;2022-10-16T06:57:02;13;7;4
42950;PMS7003;28592;51.064;17.192;2022-10-16T06:59:47;15;10;3
42950;PMS7003;28592;51.064;17.192;2022-10-16T07:02:33;11;5;2
42950;PMS7003;28592;51.064;17.192;2022-10-16T07:05:18;12;6;3
42950;PMS7003;28592;51.064;17.192;2022-10-16T07:08:07;20;15;6
42950;PMS7003;28592;51.064;17.192;2022-10-16T07:13:45;11;5;3
42950;PMS7003;28592;51.064;17.192;2022-10-16T07:16:32;13;8;4
42950;PMS7003;28592;51.064;17.192;2022-10-16T07:19:18;24;6;3
42950;PMS7003;28592;51.064;17.192;2022-10-16T07:22:03;14;8;5
42950;PMS7003;28592;51.064;17.192;2022-10-16T07:24:49;15;9;4
42950;PMS7003;28592;51.064;17.192;2022-10-16T07:27:37;14;9;3
42950;PMS7003;28592;51.064;17.192;2022-10-16T07:30:22;14;8;3
42950;PMS7003;28592;51.064;17.192;2022-10-16T07:33:07;12;7;4
42950;PMS7003;28592;51.064;17.192;2022-10-16T07:35:53;12;6;3
42950;PMS7003;28592;51.064;17.192;2022-10-16T07:38:40;13;7;5
42950;PMS7003;28592;51.064;17.192;2022-10-16T07:41:27;16;10;4
42950;PMS7003;28592;51.064;17.192;2022-10-16T07:44:12;11;5;2
42950;PMS7003;28592;51.064;17.192;2022-10-16T07:46:57;15;9;4
42950;PMS7003;28592;51.064;17.192;2022-10-16T07:49:43;13;7;4
42950;PMS7003;28592;51.064;17.192;2022-10-16T07:52:29;16;10;3
42950;PMS7003;28592;51.064;17.192;2022-10-16T07:55:14;15;9;5
42950;PMS7003;28592;51.064;17.192;2022-10-16T07:57:59;11;6;2
42950;PMS7003;28592;51.064;17.192;2022-10-16T08:00:45;11;6;3
42950;PMS7003;28592;51.064;17.192;2022-10-16T08:03:31;15;9;4
42950;PMS7003;28592;51.064;17.192;2022-10-16T08:06:17;12;6;2
42950;PMS7003;28592;51.064;17.192;2022-10-16T08:09:04;12;6;4
42950;PMS7003;28592;51.064;17.192;2022-10-16T08:11:49;14;9;4
42950;PMS7003;28592;51.064;17.192;2022-10-16T08:14:36;15;10;7
42950;PMS7003;28592;51.064;17.192;2022-10-16T08:17:22;18;13;4
42950;PMS7003;28592;51.064;17.192;2022-10-16T08:20:07;13;7;3
42950;PMS7003;28592;51.064;17.192;2022-10-16T08:22:53;15;9;4
42950;PMS7003;28592;51.064;17.192;2022-10-16T08:25:40;12;6;2
42950;PMS7003;28592;51.064;17.192;2022-10-16T08:28:27;25;9;2
42950;PMS7003;28592;51.064;17.192;2022-10-16T08:31:15;17;11;3
42950;PMS7003;28592;51.064;17.192;2022-10-16T08:34:01;13;7;2
42950;PMS7003;28592;51.064;17.192;2022-10-16T08:36:46;17;11;4
42950;PMS7003;28592;51.064;17.192;2022-10-16T08:39:31;20;14;5
42950;PMS7003;28592;51.064;17.192;2022-10-16T08:45:15;13;7;3
42950;PMS7003;28592;51.064;17.192;2022-10-16T08:51:11;14;9;6
42950;PMS7003;28592;51.064;17.192;2022-10-16T08:54:05;12;6;3
42950;PMS7003;28592;51.064;17.192;2022-10-16T08:57:07;12;6;3
42950;PMS7003;28592;51.064;17.192;2022-10-16T08:59:57;12;6;3
42950;PMS7003;28592;51.064;17.192;2022-10-16T09:02:48;14;9;6
42950;PMS7003;28592;51.064;17.192;2022-10-16T09:08:46;10;4;2
42950;PMS7003;28592;51.064;17.192;2022-10-16T09:20:40;20;14;9
42950;PMS7003;28592;51.064;17.192;2022-10-16T09:23:33;14;8;4
42950;PMS7003;28592;51.064;17.192;2022-10-16T09:26:21;16;10;3
42950;PMS7003;28592;51.064;17.192;2022-10-16T09:29:12;12;7;3
42950;PMS7003;28592;51.064;17.192;2022-10-16T09:34:59;13;7;4
42950;PMS7003;28592;51.064;17.192;2022-10-16T09:37:45;15;9;2
42950;PMS7003;28592;51.064;17.192;2022-10-16T09:40:38;16;11;4
42950;PMS7003;28592;51.064;17.192;2022-10-16T09:49:26;25;8;3
42950;PMS7003;28592;51.064;17.192;2022-10-16T09:52:12;14;8;4
42950;PMS7003;28592;51.064;17.192;2022-10-16T09:55:08;17;11;6
42950;PMS7003;28592;51.064;17.192;2022-10-16T09:57:58;12;6;3
42950;PMS7003;28592;51.064;17.192;2022-10-16T10:03:42;12;7;4
42950;PMS7003;28592;51.064;17.192;2022-10-16T10:06:36;24;6;3
42950;PMS7003;28592;51.064;17.192;2022-10-16T10:09:25;14;8;5
42950;PMS7003;28592;51.064;17.192;2022-10-16T10:15:07;12;6;3
42950;PMS7003;28592;51.064;17.192;2022-10-16T10:17:57;14;9;4
42950;PMS7003;28592;51.064;17.192;2022-10-16T10:20:43;12;6;2
42950;PMS7003;28592;51.064;17.192;2022-10-16T10:23:29;13;8;4
42950;PMS7003;28592;51.064;17.192;2022-10-16T10:26:18;13;7;4
42950;PMS7003;28592;51.064;17.192;2022-10-16T10:29:12;12;7;4
42950;PMS7003;28592;51.064;17.192;2022-10-16T10:38:02;17;11;6
42950;PMS7003;28592;51.064;17.192;2022-10-16T10:41:03;14;8;5
42950;PMS7003;28592;51.064;17.192;2022-10-16T10:46:58;13;7;4
42950;PMS7003;28592;51.064;17.192;2022-10-16T10:52:51;14;8;5
42950;PMS7003;28592;51.064;17.192;2022-10-16T10:55:44;12;6;3
42950;PMS7003;28592;51.064;17.192;2022-10-16T11:10:23;11;5;2
42950;PMS7003;28592;51.064;17.192;2022-10-16T11:34:01;10;4;1
42950;PMS7003;28592;51.064;17.192;2022-10-16T11:39:48;13;7;2
42950;PMS7003;28592;51.064;17.192;2022-10-16T11:42:37;22;5;2
42950;PMS7003;28592;51.064;17.192;2022-10-16T11:45:31;11;5;2
42950;PMS7003;28592;51.064;17.192;2022-10-16T11:57:22;18;12;5
42950;PMS7003;28592;51.064;17.192;2022-10-16T12:09:03;13;8;1
42950;PMS7003;28592;51.064;17.192;2022-10-16T12:11:49;12;6;3
42950;PMS7003;28592;51.064;17.192;2022-10-16T12:14:38;14;8;5
42950;PMS7003;28592;51.064;17.192;2022-10-16T12:17:26;28;10;4
42950;PMS7003;28592;51.064;17.192;2022-10-16T12:20:20;17;11;6
42950;PMS7003;28592;51.064;17.192;2022-10-16T12:23:16;14;8;3
42950;PMS7003;28592;51.064;17.192;2022-10-16T12:26:06;12;7;2
42950;PMS7003;28592;51.064;17.192;2022-10-16T12:28:52;17;11;4
42950;PMS7003;28592;51.064;17.192;2022-10-16T12:31:38;14;9;5
42950;PMS7003;28592;51.064;17.192;2022-10-16T12:34:38;16;10;3
42950;PMS7003;28592;51.064;17.192;2022-10-16T12:37:28;16;10;4
42950;PMS7003;28592;51.064;17.192;2022-10-16T12:55:12;27;21;10
42950;PMS7003;28592;51.064;17.192;2022-10-16T13:00:58;17;11;7
42950;PMS7003;28592;51.064;17.192;2022-10-16T13:06:58;22;16;7
42950;PMS7003;28592;51.064;17.192;2022-10-16T13:30:39;16;10;6
42950;PMS7003;28592;51.064;17.192;2022-10-16T13:36:30;20;14;6
42950;PMS7003;28592;51.064;17.192;2022-10-16T13:39:14;18;12;6
42950;PMS7003;28592;51.064;17.192;2022-10-16T13:42:05;32;12;6
42950;PMS7003;28592;51.064;17.192;2022-10-16T13:44:57;19;13;4
42950;PMS7003;28592;51.064;17.192;2022-10-16T13:47:42;17;11;4
42950;PMS7003;28592;51.064;17.192;2022-10-16T13:50:28;16;10;6
42950;PMS7003;28592;51.064;17.192;2022-10-16T13:53:14;15;10;6
42950;PMS7003;28592;51.064;17.192;2022-10-16T13:56:00;14;8;4
42950;PMS7003;28592;51.064;17.192;2022-10-16T14:01:44;20;14;7
42950;PMS7003;28592;51.064;17.192;2022-10-16T14:04:31;25;20;4
42950;PMS7003;28592;51.064;17.192;2022-10-16T14:13:12;19;13;3
42950;PMS7003;28592;51.064;17.192;2022-10-16T14:16:05;25;20;5
42950;PMS7003;28592;51.064;17.192;2022-10-16T14:18:57;22;16;4
42950;PMS7003;28592;51.064;17.192;2022-10-16T14:21:45;20;14;7
42950;PMS7003;28592;51.064;17.192;2022-10-16T14:24:34;16;11;7
42950;PMS7003;28592;51.064;17.192;2022-10-16T14:30:21;15;9;4
42950;PMS7003;28592;51.064;17.192;2022-10-16T14:33:20;17;11;5
42950;PMS7003;28592;51.064;17.192;2022-10-16T14:36:13;21;15;4
42950;PMS7003;28592;51.064;17.192;2022-10-16T14:39:05;16;10;5
42950;PMS7003;28592;51.064;17.192;2022-10-16T14:41:56;13;8;5
42950;PMS7003;28592;51.064;17.192;2022-10-16T14:44:43;17;11;5
42950;PMS7003;28592;51.064;17.192;2022-10-16T14:47:29;17;11;4
42950;PMS7003;28592;51.064;17.192;2022-10-16T14:50:15;26;20;8
42950;PMS7003;28592;51.064;17.192;2022-10-16T14:53:00;17;11;8
42950;PMS7003;28592;51.064;17.192;2022-10-16T14:55:45;15;9;6
42950;PMS7003;28592;51.064;17.192;2022-10-16T14:58:32;16;11;8
42950;PMS7003;28592;51.064;17.192;2022-10-16T15:01:18;13;7;4
42950;PMS7003;28592;51.064;17.192;2022-10-16T15:04:03;16;10;5
42950;PMS7003;28592;51.064;17.192;2022-10-16T15:06:49;17;12;4
42950;PMS7003;28592;51.064;17.192;2022-10-16T15:09:34;20;14;8
42950;PMS7003;28592;51.064;17.192;2022-10-16T15:12:19;18;13;5
42950;PMS7003;28592;51.064;17.192;2022-10-16T15:18:01;18;12;4
42950;PMS7003;28592;51.064;17.192;2022-10-16T15:20:48;18;12;6
42950;PMS7003;28592;51.064;17.192;2022-10-16T15:23:35;33;15;9
42950;PMS7003;28592;51.064;17.192;2022-10-16T15:26:24;18;12;8
42950;PMS7003;28592;51.064;17.192;2022-10-16T15:29:10;19;13;7
42950;PMS7003;28592;51.064;17.192;2022-10-16T15:31:56;23;17;8
42950;PMS7003;28592;51.064;17.192;2022-10-16T15:34:45;16;11;7
42950;PMS7003;28592;51.064;17.192;2022-10-16T15:37:30;15;9;2
42950;PMS7003;28592;51.064;17.192;2022-10-16T15:40:19;31;14;7
42950;PMS7003;28592;51.064;17.192;2022-10-16T15:43:04;15;9;5
42950;PMS7003;28592;51.064;17.192;2022-10-16T15:48:49;17;11;8
42950;PMS7003;28592;51.064;17.192;2022-10-16T15:51:37;18;12;5
42950;PMS7003;28592;51.064;17.192;2022-10-16T15:54:24;19;14;9
42950;PMS7003;28592;51.064;17.192;2022-10-16T15:57:09;19;13;9
42950;PMS7003;28592;51.064;17.192;2022-10-16T15:59:54;17;12;8
42950;PMS7003;28592;51.064;17.192;2022-10-16T16:02:40;24;7;3
42950;PMS7003;28592;51.064;17.192;2022-10-16T16:05:26;28;9;5
42950;PMS7003;28592;51.064;17.192;2022-10-16T16:08:13;20;15;6
42950;PMS7003;28592;51.064;17.192;2022-10-16T16:10:59;25;19;7
42950;PMS7003;28592;51.064;17.192;2022-10-16T16:13:45;17;12;7
42950;PMS7003;28592;51.064;17.192;2022-10-16T16:16:31;23;17;10
42950;PMS7003;28592;51.064;17.192;2022-10-16T16:19:22;29;13;6
42950;PMS7003;28592;51.064;17.192;2022-10-16T16:22:08;24;19;10
42950;PMS7003;28592;51.064;17.192;2022-10-16T16:24:53;20;14;8
42950;PMS7003;28592;51.064;17.192;2022-10-16T16:27:39;21;15;11
42950;PMS7003;28592;51.064;17.192;2022-10-16T16:30:23;21;15;7
42950;PMS7003;28592;51.064;17.192;2022-10-16T16:33:09;27;21;11
42950;PMS7003;28592;51.064;17.192;2022-10-16T16:36:12;15;10;5
42950;PMS7003;28592;51.064;17.192;2022-10-16T16:38:50;28;10;4
42950;PMS7003;28592;51.064;17.192;2022-10-16T16:41:38;24;18;10
42950;PMS7003;28592;51.064;17.192;2022-10-16T16:44:23;22;16;10
42950;PMS7003;28592;51.064;17.192;2022-10-16T16:47:09;27;21;10
42950;PMS7003;28592;51.064;17.192;2022-10-16T16:49:54;25;20;6
42950;PMS7003;28592;51.064;17.192;2022-10-16T16:52:40;17;11;6
42950;PMS7003;28592;51.064;17.192;2022-10-16T16:55:25;34;17;11
42950;PMS7003;28592;51.064;17.192;2022-10-16T16:58:11;18;12;9
42950;PMS7003;28592;51.064;17.192;2022-10-16T17:00:56;21;15;10
42950;PMS7003;28592;51.064;17.192;2022-10-16T17:03:46;17;11;8
42950;PMS7003;28592;51.064;17.192;2022-10-16T17:06:36;33;16;8
42950;PMS7003;28592;51.064;17.192;2022-10-16T17:09:23;22;17;11
42950;PMS7003;28592;51.064;17.192;2022-10-16T17:12:08;28;22;11
42950;PMS7003;28592;51.064;17.192;2022-10-16T17:14:53;23;10;5
42950;PMS7003;28592;51.064;17.192;2022-10-16T17:17:39;20;14;7
42950;PMS7003;28592;51.064;17.192;2022-10-16T17:20:26;19;13;8
42950;PMS7003;28592;51.064;17.192;2022-10-16T17:23:13;25;13;8
42950;PMS7003;28592;51.064;17.192;2022-10-16T17:28:57;27;21;15
42950;PMS7003;28592;51.064;17.192;2022-10-16T17:32:06;21;15;9
42950;PMS7003;28592;51.064;17.192;2022-10-16T17:35:02;22;16;9
42950;PMS7003;28592;51.064;17.192;2022-10-16T17:37:48;21;15;9
42950;PMS7003;28592;51.064;17.192;2022-10-16T17:40:36;27;22;10
42950;PMS7003;28592;51.064;17.192;2022-10-16T17:43:22;36;16;8
42950;PMS7003;28592;51.064;17.192;2022-10-16T17:46:07;21;15;6
42950;PMS7003;28592;51.064;17.192;2022-10-16T17:48:54;27;21;12
42950;PMS7003;28592;51.064;17.192;2022-10-16T17:51:40;30;24;11
42950;PMS7003;28592;51.064;17.192;2022-10-16T17:54:25;26;20;10
42950;PMS7003;28592;51.064;17.192;2022-10-16T17:57:11;22;16;8
42950;PMS7003;28592;51.064;17.192;2022-10-16T17:59:56;23;17;7
42950;PMS7003;28592;51.064;17.192;2022-10-16T18:02:47;40;16;9
42950;PMS7003;28592;51.064;17.192;2022-10-16T18:05:36;24;18;10
42950;PMS7003;28592;51.064;17.192;2022-10-16T18:08:22;27;21;8
42950;PMS7003;28592;51.064;17.192;2022-10-16T18:11:08;18;12;8
42950;PMS7003;28592;51.064;17.192;2022-10-16T18:13:57;26;21;10
42950;PMS7003;28592;51.064;17.192;2022-10-16T18:16:43;27;22;10
42950;PMS7003;28592;51.064;17.192;2022-10-16T18:19:31;31;26;8
42950;PMS7003;28592;51.064;17.192;2022-10-16T18:22:29;36;19;9
42950;PMS7003;28592;51.064;17.192;2022-10-16T18:25:14;36;15;11
42950;PMS7003;28592;51.064;17.192;2022-10-16T18:28:01;17;11;6
42950;PMS7003;28592;51.064;17.192;2022-10-16T18:33:43;29;24;7
42950;PMS7003;28592;51.064;17.192;2022-10-16T18:36:34;30;14;8
42950;PMS7003;28592;51.064;17.192;2022-10-16T18:39:20;24;18;9
42950;PMS7003;28592;51.064;17.192;2022-10-16T18:42:09;21;16;9
42950;PMS7003;28592;51.064;17.192;2022-10-16T18:44:54;28;22;9
42950;PMS7003;28592;51.064;17.192;2022-10-16T18:47:40;21;15;8
42950;PMS7003;28592;51.064;17.192;2022-10-16T18:50:25;27;10;7
42950;PMS7003;28592;51.064;17.192;2022-10-16T18:53:10;26;13;11
42950;PMS7003;28592;51.064;17.192;2022-10-16T18:55:56;20;15;8
42950;PMS7003;28592;51.064;17.192;2022-10-16T18:58:45;23;18;8
42950;PMS7003;28592;51.064;17.192;2022-10-16T19:01:33;29;23;10
42950;PMS7003;28592;51.064;17.192;2022-10-16T19:04:22;29;23;14
42950;PMS7003;28592;51.064;17.192;2022-10-16T19:07:07;31;25;12
42950;PMS7003;28592;51.064;17.192;2022-10-16T19:09:53;33;16;7
42950;PMS7003;28592;51.064;17.192;2022-10-16T19:12:39;29;23;15
42950;PMS7003;28592;51.064;17.192;2022-10-16T19:15:25;19;13;7
42950;PMS7003;28592;51.064;17.192;2022-10-16T19:18:15;29;23;8
42950;PMS7003;28592;51.064;17.192;2022-10-16T19:21:04;22;17;10
42950;PMS7003;28592;51.064;17.192;2022-10-16T19:26:45;18;12;7
42950;PMS7003;28592;51.064;17.192;2022-10-16T19:29:30;21;16;10
42950;PMS7003;28592;51.064;17.192;2022-10-16T19:32:17;41;23;12
42950;PMS7003;28592;51.064;17.192;2022-10-16T19:35:08;31;25;11
42950;PMS7003;28592;51.064;17.192;2022-10-16T19:37:54;18;12;8
42950;PMS7003;28592;51.064;17.192;2022-10-16T19:40:42;32;15;5
42950;PMS7003;28592;51.064;17.192;2022-10-16T19:43:28;30;24;11
42950;PMS7003;28592;51.064;17.192;2022-10-16T19:46:14;24;19;14
42950;PMS7003;28592;51.064;17.192;2022-10-16T19:49:05;36;24;10
42950;PMS7003;28592;51.064;17.192;2022-10-16T19:51:53;23;17;8
42950;PMS7003;28592;51.064;17.192;2022-10-16T19:54:38;27;21;10
42950;PMS7003;28592;51.064;17.192;2022-10-16T19:57:26;29;23;11
42950;PMS7003;28592;51.064;17.192;2022-10-16T20:00:13;45;20;10
42950;PMS7003;28592;51.064;17.192;2022-10-16T20:03:01;22;16;9
42950;PMS7003;28592;51.064;17.192;2022-10-16T20:05:51;26;20;10
42950;PMS7003;28592;51.064;17.192;2022-10-16T20:08:41;25;19;11
42950;PMS7003;28592;51.064;17.192;2022-10-16T20:11:30;25;19;9
42950;PMS7003;28592;51.064;17.192;2022-10-16T20:14:17;22;17;5
42950;PMS7003;28592;51.064;17.192;2022-10-16T20:17:06;22;17;10
42950;PMS7003;28592;51.064;17.192;2022-10-16T20:19:52;25;19;11
42950;PMS7003;28592;51.064;17.192;2022-10-16T20:22:38;41;23;11
42950;PMS7003;28592;51.064;17.192;2022-10-16T20:25:23;27;21;11
42950;PMS7003;28592;51.064;17.192;2022-10-16T20:28:10;34;17;11
42950;PMS7003;28592;51.064;17.192;2022-10-16T20:31:04;29;17;12
42950;PMS7003;28592;51.064;17.192;2022-10-16T20:33:54;18;12;8
42950;PMS7003;28592;51.064;17.192;2022-10-16T20:36:42;36;19;14
42950;PMS7003;28592;51.064;17.192;2022-10-16T20:39:37;24;19;12
42950;PMS7003;28592;51.064;17.192;2022-10-16T20:42:23;40;24;11
42950;PMS7003;28592;51.064;17.192;2022-10-16T20:45:09;32;15;9
42950;PMS7003;28592;51.064;17.192;2022-10-16T20:47:58;27;21;14
42950;PMS7003;28592;51.064;17.192;2022-10-16T20:50:45;25;19;13
42950;PMS7003;28592;51.064;17.192;2022-10-16T20:53:31;30;24;15
42950;PMS7003;28592;51.064;17.192;2022-10-16T20:56:20;34;28;14
42950;PMS7003;28592;51.064;17.192;2022-10-16T20:59:06;32;26;13
42950;PMS7003;28592;51.064;17.192;2022-10-16T21:01:53;33;27;11
42950;PMS7003;28592;51.064;17.192;2022-10-16T21:04:45;29;23;13
42950;PMS7003;28592;51.064;17.192;2022-10-16T21:07:31;44;24;14
42950;PMS7003;28592;51.064;17.192;2022-10-16T21:10:16;39;22;9
42950;PMS7003;28592;51.064;17.192;2022-10-16T21:13:03;29;23;11